sensor_id;sensor_type;location;lat;lon;timestamp;temperature;humidity
28010;DHT22;15334;49.494;8.410;2022-12-18T00:02:12;-5.30;99.90
28010;DHT22;15334;49.494;8.410;2022-12-18T00:04:45;-5.40;99.90
28010;DHT22;15334;49.494;8.410;2022-12-18T00:07:20;-5.40;99.90
28010;DHT22;15334;49.494;8.410;2022-12-18T00:09:50;-5.50;99.90
28010;DHT22;15334;49.494;8.410;2022-12-18T00:12:28;-5.50;99.90
28010;DHT22;15334;49.494;8.410;2022-12-18T00:15:02;-5.50;99.90
28010;DHT22;15334;49.494;8.410;2022-12-18T00:17:30;-5.50;99.90
28010;DHT22;15334;49.494;8.410;2022-12-18T00:19:58;-5.40;99.90
28010;DHT22;15334;49.494;8.410;2022-12-18T00:22:26;-5.40;99.90
28010;DHT22;15334;49.494;8.410;2022-12-18T00:24:56;-5.40;99.90
28010;DHT22;15334;49.494;8.410;2022-12-18T00:27:33;-5.40;99.90
28010;DHT22;15334;49.494;8.410;2022-12-18T00:30:16;-5.40;99.90
28010;DHT22;15334;49.494;8.410;2022-12-18T00:32:58;-5.30;99.90
28010;DHT22;15334;49.494;8.410;2022-12-18T00:35:36;-5.30;99.90
28010;DHT22;15334;49.494;8.410;2022-12-18T00:38:18;-5.30;99.90
28010;DHT22;15334;49.494;8.410;2022-12-18T00:41:05;-5.30;99.90
28010;DHT22;15334;49.494;8.410;2022-12-18T00:43:38;-5.30;99.90
28010;DHT22;15334;49.494;8.410;2022-12-18T00:46:06;-5.30;99.90
28010;DHT22;15334;49.494;8.410;2022-12-18T00:48:46;-5.30;99.90
28010;DHT22;15334;49.494;8.410;2022-12-18T00:51:19;-5.30;99.90
28010;DHT22;15334;49.494;8.410;2022-12-18T00:53:49;-5.30;99.90
28010;DHT22;15334;49.494;8.410;2022-12-18T00:56:27;-5.30;99.90
28010;DHT22;15334;49.494;8.410;2022-12-18T00:59:08;-5.30;99.90
28010;DHT22;15334;49.494;8.410;2022-12-18T01:01:36;-5.40;99.90
28010;DHT22;15334;49.494;8.410;2022-12-18T01:04:04;-5.50;99.90
28010;DHT22;15334;49.494;8.410;2022-12-18T01:06:33;-5.40;99.90
28010;DHT22;15334;49.494;8.410;2022-12-18T01:09:01;-5.50;99.90
28010;DHT22;15334;49.494;8.410;2022-12-18T01:11:33;-5.60;99.90
28010;DHT22;15334;49.494;8.410;2022-12-18T01:14:01;-5.60;99.90
28010;DHT22;15334;49.494;8.410;2022-12-18T01:16:29;-5.60;99.90
28010;DHT22;15334;49.494;8.410;2022-12-18T01:18:58;-5.50;99.90
28010;DHT22;15334;49.494;8.410;2022-12-18T01:21:54;-5.60;99.90
28010;DHT22;15334;49.494;8.410;2022-12-18T01:24:22;-5.60;99.90
28010;DHT22;15334;49.494;8.410;2022-12-18T01:26:57;-5.70;99.90
28010;DHT22;15334;49.494;8.410;2022-12-18T01:29:28;-5.70;99.90
28010;DHT22;15334;49.494;8.410;2022-12-18T01:31:56;-5.70;99.90
28010;DHT22;15334;49.494;8.410;2022-12-18T01:34:25;-5.70;99.90
28010;DHT22;15334;49.494;8.410;2022-12-18T01:36:53;-5.70;99.90
28010;DHT22;15334;49.494;8.410;2022-12-18T01:39:21;-5.60;99.90
28010;DHT22;15334;49.494;8.410;2022-12-18T01:41:49;-5.50;99.90
28010;DHT22;15334;49.494;8.410;2022-12-18T01:45:05;-5.50;99.90
28010;DHT22;15334;49.494;8.410;2022-12-18T01:47:37;-5.60;99.90
28010;DHT22;15334;49.494;8.410;2022-12-18T01:50:16;-5.70;99.90
28010;DHT22;15334;49.494;8.410;2022-12-18T01:52:47;-5.70;99.90
28010;DHT22;15334;49.494;8.410;2022-12-18T01:55:24;-5.80;99.90
28010;DHT22;15334;49.494;8.410;2022-12-18T01:57:56;-5.80;99.90
28010;DHT22;15334;49.494;8.410;2022-12-18T02:00:27;-5.80;99.90
28010;DHT22;15334;49.494;8.410;2022-12-18T02:02:59;-5.70;99.90
28010;DHT22;15334;49.494;8.410;2022-12-18T02:05:51;-5.70;99.90
28010;DHT22;15334;49.494;8.410;2022-12-18T02:08:27;-5.80;99.90
28010;DHT22;15334;49.494;8.410;2022-12-18T02:11:05;-5.90;99.90
28010;DHT22;15334;49.494;8.410;2022-12-18T02:13:41;-5.90;99.90
28010;DHT22;15334;49.494;8.410;2022-12-18T02:16:19;-5.90;99.90
28010;DHT22;15334;49.494;8.410;2022-12-18T02:18:55;-6.00;99.90
28010;DHT22;15334;49.494;8.410;2022-12-18T02:21:31;-6.00;99.90
28010;DHT22;15334;49.494;8.410;2022-12-18T02:24:15;-6.10;99.90
28010;DHT22;15334;49.494;8.410;2022-12-18T02:26:47;-6.10;99.90
28010;DHT22;15334;49.494;8.410;2022-12-18T02:29:20;-6.10;99.90
28010;DHT22;15334;49.494;8.410;2022-12-18T02:31:49;-6.10;99.90
28010;DHT22;15334;49.494;8.410;2022-12-18T02:34:38;-6.20;99.90
28010;DHT22;15334;49.494;8.410;2022-12-18T02:37:19;-6.20;99.90
28010;DHT22;15334;49.494;8.410;2022-12-18T02:39:57;-6.10;99.90
28010;DHT22;15334;49.494;8.410;2022-12-18T02:42:36;-6.10;99.90
28010;DHT22;15334;49.494;8.410;2022-12-18T02:45:07;-6.10;99.90
28010;DHT22;15334;49.494;8.410;2022-12-18T02:47:41;-6.10;99.90
28010;DHT22;15334;49.494;8.410;2022-12-18T02:50:26;-5.90;99.90
28010;DHT22;15334;49.494;8.410;2022-12-18T02:53:01;-6.00;99.90
28010;DHT22;15334;49.494;8.410;2022-12-18T02:55:41;-6.00;99.90
28010;DHT22;15334;49.494;8.410;2022-12-18T02:58:18;-5.90;99.90
28010;DHT22;15334;49.494;8.410;2022-12-18T03:00:52;-5.90;99.90
28010;DHT22;15334;49.494;8.410;2022-12-18T03:03:33;-5.90;99.90
28010;DHT22;15334;49.494;8.410;2022-12-18T03:06:07;-5.80;99.90
28010;DHT22;15334;49.494;8.410;2022-12-18T03:08:38;-5.80;99.90
28010;DHT22;15334;49.494;8.410;2022-12-18T03:11:10;-5.80;99.90
28010;DHT22;15334;49.494;8.410;2022-12-18T03:13:44;-5.80;99.90
28010;DHT22;15334;49.494;8.410;2022-12-18T03:16:18;-5.80;99.90
28010;DHT22;15334;49.494;8.410;2022-12-18T03:18:53;-5.70;99.90
28010;DHT22;15334;49.494;8.410;2022-12-18T03:21:26;-5.80;99.90
28010;DHT22;15334;49.494;8.410;2022-12-18T03:23:56;-5.80;99.90
28010;DHT22;15334;49.494;8.410;2022-12-18T03:26:26;-5.70;99.90
28010;DHT22;15334;49.494;8.410;2022-12-18T03:29:01;-5.70;99.90
28010;DHT22;15334;49.494;8.410;2022-12-18T03:31:31;-5.80;99.90
28010;DHT22;15334;49.494;8.410;2022-12-18T03:34:17;-5.80;99.90
28010;DHT22;15334;49.494;8.410;2022-12-18T03:36:47;-5.80;99.90
28010;DHT22;15334;49.494;8.410;2022-12-18T03:39:15;-5.70;99.90
28010;DHT22;15334;49.494;8.410;2022-12-18T03:41:47;-5.60;99.90
28010;DHT22;15334;49.494;8.410;2022-12-18T03:44:24;-5.60;99.90
28010;DHT22;15334;49.494;8.410;2022-12-18T03:47:01;-5.50;99.90
28010;DHT22;15334;49.494;8.410;2022-12-18T03:49:35;-5.60;99.90
28010;DHT22;15334;49.494;8.410;2022-12-18T03:52:08;-5.60;99.90
28010;DHT22;15334;49.494;8.410;2022-12-18T03:54:39;-5.60;99.90
28010;DHT22;15334;49.494;8.410;2022-12-18T03:57:14;-5.60;99.90
28010;DHT22;15334;49.494;8.410;2022-12-18T03:59:46;-5.70;99.90
28010;DHT22;15334;49.494;8.410;2022-12-18T04:02:16;-5.70;99.90
28010;DHT22;15334;49.494;8.410;2022-12-18T04:04:47;-5.80;99.90
28010;DHT22;15334;49.494;8.410;2022-12-18T04:07:18;-5.80;99.90
28010;DHT22;15334;49.494;8.410;2022-12-18T04:09:48;-5.80;99.90
28010;DHT22;15334;49.494;8.410;2022-12-18T04:12:20;-5.80;99.90
28010;DHT22;15334;49.494;8.410;2022-12-18T04:14:50;-5.90;99.90
28010;DHT22;15334;49.494;8.410;2022-12-18T04:17:18;-5.90;99.90
28010;DHT22;15334;49.494;8.410;2022-12-18T04:19:46;-5.80;99.90
28010;DHT22;15334;49.494;8.410;2022-12-18T04:22:14;-5.80;99.90
28010;DHT22;15334;49.494;8.410;2022-12-18T04:24:43;-5.90;99.90
28010;DHT22;15334;49.494;8.410;2022-12-18T04:27:11;-6.00;99.90
28010;DHT22;15334;49.494;8.410;2022-12-18T04:29:40;-6.00;99.90
28010;DHT22;15334;49.494;8.410;2022-12-18T04:32:10;-5.90;99.90
28010;DHT22;15334;49.494;8.410;2022-12-18T04:34:38;-5.90;99.90
28010;DHT22;15334;49.494;8.410;2022-12-18T04:37:06;-5.90;99.90
28010;DHT22;15334;49.494;8.410;2022-12-18T04:39:34;-5.90;99.90
28010;DHT22;15334;49.494;8.410;2022-12-18T04:42:02;-6.00;99.90
28010;DHT22;15334;49.494;8.410;2022-12-18T04:44:33;-5.90;99.90
28010;DHT22;15334;49.494;8.410;2022-12-18T04:47:04;-5.90;99.90
28010;DHT22;15334;49.494;8.410;2022-12-18T04:49:33;-5.80;99.90
28010;DHT22;15334;49.494;8.410;2022-12-18T04:52:01;-5.80;99.90
28010;DHT22;15334;49.494;8.410;2022-12-18T04:54:29;-5.90;99.90
28010;DHT22;15334;49.494;8.410;2022-12-18T04:56:57;-5.80;99.90
28010;DHT22;15334;49.494;8.410;2022-12-18T04:59:25;-5.90;99.90
28010;DHT22;15334;49.494;8.410;2022-12-18T05:01:54;-5.90;99.90
28010;DHT22;15334;49.494;8.410;2022-12-18T05:04:29;-5.80;99.90
28010;DHT22;15334;49.494;8.410;2022-12-18T05:07:03;-6.00;99.90
28010;DHT22;15334;49.494;8.410;2022-12-18T05:09:34;-6.00;99.90
28010;DHT22;15334;49.494;8.410;2022-12-18T05:12:02;-6.10;99.90
28010;DHT22;15334;49.494;8.410;2022-12-18T05:14:33;-6.20;99.90
28010;DHT22;15334;49.494;8.410;2022-12-18T05:17:01;-6.30;99.90
28010;DHT22;15334;49.494;8.410;2022-12-18T05:19:29;-6.20;99.90
28010;DHT22;15334;49.494;8.410;2022-12-18T05:21:57;-6.30;99.90
28010;DHT22;15334;49.494;8.410;2022-12-18T05:24:26;-6.30;99.90
28010;DHT22;15334;49.494;8.410;2022-12-18T05:26:54;-6.20;99.90
28010;DHT22;15334;49.494;8.410;2022-12-18T05:29:24;-6.30;99.90
28010;DHT22;15334;49.494;8.410;2022-12-18T05:31:53;-6.20;99.90
28010;DHT22;15334;49.494;8.410;2022-12-18T05:34:28;-6.10;99.90
28010;DHT22;15334;49.494;8.410;2022-12-18T05:37:00;-6.00;99.90
28010;DHT22;15334;49.494;8.410;2022-12-18T05:39:34;-6.00;99.90
28010;DHT22;15334;49.494;8.410;2022-12-18T05:42:05;-5.90;99.90
28010;DHT22;15334;49.494;8.410;2022-12-18T05:44:33;-5.90;99.90
28010;DHT22;15334;49.494;8.410;2022-12-18T05:47:01;-6.10;99.90
28010;DHT22;15334;49.494;8.410;2022-12-18T05:49:29;-6.10;99.90
28010;DHT22;15334;49.494;8.410;2022-12-18T05:51:57;-6.00;99.90
28010;DHT22;15334;49.494;8.410;2022-12-18T05:54:27;-6.00;99.90
28010;DHT22;15334;49.494;8.410;2022-12-18T05:56:56;-5.90;99.90
28010;DHT22;15334;49.494;8.410;2022-12-18T05:59:24;-5.80;99.90
28010;DHT22;15334;49.494;8.410;2022-12-18T06:01:57;-5.80;99.90
28010;DHT22;15334;49.494;8.410;2022-12-18T06:04:36;-5.70;99.90
28010;DHT22;15334;49.494;8.410;2022-12-18T06:07:12;-5.70;99.90
28010;DHT22;15334;49.494;8.410;2022-12-18T06:09:40;-5.70;99.90
28010;DHT22;15334;49.494;8.410;2022-12-18T06:12:09;-5.70;99.90
28010;DHT22;15334;49.494;8.410;2022-12-18T06:14:38;-5.60;99.90
28010;DHT22;15334;49.494;8.410;2022-12-18T06:17:06;-5.60;99.90
28010;DHT22;15334;49.494;8.410;2022-12-18T06:19:34;-5.80;99.90
28010;DHT22;15334;49.494;8.410;2022-12-18T06:22:02;-5.90;99.90
28010;DHT22;15334;49.494;8.410;2022-12-18T06:24:30;-5.80;99.90
28010;DHT22;15334;49.494;8.410;2022-12-18T06:26:59;-5.70;99.90
28010;DHT22;15334;49.494;8.410;2022-12-18T06:29:29;-5.80;99.90
28010;DHT22;15334;49.494;8.410;2022-12-18T06:31:57;-5.80;99.90
28010;DHT22;15334;49.494;8.410;2022-12-18T06:34:25;-5.80;99.90
28010;DHT22;15334;49.494;8.410;2022-12-18T06:36:53;-5.80;99.90
28010;DHT22;15334;49.494;8.410;2022-12-18T06:39:21;-5.70;99.90
28010;DHT22;15334;49.494;8.410;2022-12-18T06:41:49;-5.90;99.90
28010;DHT22;15334;49.494;8.410;2022-12-18T06:44:19;-6.00;99.90
28010;DHT22;15334;49.494;8.410;2022-12-18T06:46:48;-6.00;99.90
28010;DHT22;15334;49.494;8.410;2022-12-18T06:49:16;-6.10;99.90
28010;DHT22;15334;49.494;8.410;2022-12-18T06:51:44;-6.10;99.90
28010;DHT22;15334;49.494;8.410;2022-12-18T06:54:13;-6.20;99.90
28010;DHT22;15334;49.494;8.410;2022-12-18T06:56:44;-6.30;99.90
28010;DHT22;15334;49.494;8.410;2022-12-18T06:59:12;-6.40;99.90
28010;DHT22;15334;49.494;8.410;2022-12-18T07:01:41;-6.40;99.90
28010;DHT22;15334;49.494;8.410;2022-12-18T07:04:10;-6.50;99.90
28010;DHT22;15334;49.494;8.410;2022-12-18T07:06:38;-6.60;99.90
28010;DHT22;15334;49.494;8.410;2022-12-18T07:09:06;-6.60;99.90
28010;DHT22;15334;49.494;8.410;2022-12-18T07:11:36;-6.50;99.90
28010;DHT22;15334;49.494;8.410;2022-12-18T07:14:04;-6.50;99.90
28010;DHT22;15334;49.494;8.410;2022-12-18T07:16:34;-6.30;99.90
28010;DHT22;15334;49.494;8.410;2022-12-18T07:19:05;-6.40;99.90
28010;DHT22;15334;49.494;8.410;2022-12-18T07:21:34;-6.50;99.90
28010;DHT22;15334;49.494;8.410;2022-12-18T07:24:07;-6.50;99.90
28010;DHT22;15334;49.494;8.410;2022-12-18T07:26:35;-6.60;99.90
28010;DHT22;15334;49.494;8.410;2022-12-18T07:29:03;-6.50;99.90
28010;DHT22;15334;49.494;8.410;2022-12-18T07:31:31;-6.40;99.90
28010;DHT22;15334;49.494;8.410;2022-12-18T07:34:01;-6.40;99.90
28010;DHT22;15334;49.494;8.410;2022-12-18T07:36:32;-6.30;99.90
28010;DHT22;15334;49.494;8.410;2022-12-18T07:39:01;-6.20;99.90
28010;DHT22;15334;49.494;8.410;2022-12-18T07:41:29;-6.20;99.90
28010;DHT22;15334;49.494;8.410;2022-12-18T07:43:57;-6.20;99.90
28010;DHT22;15334;49.494;8.410;2022-12-18T07:46:25;-6.20;99.90
28010;DHT22;15334;49.494;8.410;2022-12-18T07:48:53;-6.20;99.90
28010;DHT22;15334;49.494;8.410;2022-12-18T07:51:21;-6.20;99.90
28010;DHT22;15334;49.494;8.410;2022-12-18T07:53:50;-6.20;99.90
28010;DHT22;15334;49.494;8.410;2022-12-18T07:56:20;-6.10;99.90
28010;DHT22;15334;49.494;8.410;2022-12-18T07:58:57;-6.10;99.90
28010;DHT22;15334;49.494;8.410;2022-12-18T08:01:26;-6.00;99.90
28010;DHT22;15334;49.494;8.410;2022-12-18T08:03:54;-6.00;99.90
28010;DHT22;15334;49.494;8.410;2022-12-18T08:06:22;-6.00;99.90
28010;DHT22;15334;49.494;8.410;2022-12-18T08:08:52;-6.00;99.90
28010;DHT22;15334;49.494;8.410;2022-12-18T08:11:22;-6.10;99.90
28010;DHT22;15334;49.494;8.410;2022-12-18T08:13:50;-6.00;99.90
28010;DHT22;15334;49.494;8.410;2022-12-18T08:16:20;-5.90;99.90
28010;DHT22;15334;49.494;8.410;2022-12-18T08:18:51;-5.90;99.90
28010;DHT22;15334;49.494;8.410;2022-12-18T08:21:22;-5.80;99.90
28010;DHT22;15334;49.494;8.410;2022-12-18T08:23:52;-5.70;99.90
28010;DHT22;15334;49.494;8.410;2022-12-18T08:26:22;-5.60;99.90
28010;DHT22;15334;49.494;8.410;2022-12-18T08:28:53;-5.60;99.90
28010;DHT22;15334;49.494;8.410;2022-12-18T08:31:26;-5.60;99.90
28010;DHT22;15334;49.494;8.410;2022-12-18T08:33:55;-5.60;99.90
28010;DHT22;15334;49.494;8.410;2022-12-18T08:36:23;-5.60;99.90
28010;DHT22;15334;49.494;8.410;2022-12-18T08:39:07;-5.50;99.90
28010;DHT22;15334;49.494;8.410;2022-12-18T08:41:40;-5.40;99.90
28010;DHT22;15334;49.494;8.410;2022-12-18T08:44:13;-5.50;99.90
28010;DHT22;15334;49.494;8.410;2022-12-18T08:46:58;-5.40;99.90
28010;DHT22;15334;49.494;8.410;2022-12-18T08:49:26;-5.50;99.90
28010;DHT22;15334;49.494;8.410;2022-12-18T08:51:54;-5.40;99.90
28010;DHT22;15334;49.494;8.410;2022-12-18T08:54:29;-5.30;99.90
28010;DHT22;15334;49.494;8.410;2022-12-18T08:57:49;-5.30;99.90
28010;DHT22;15334;49.494;8.410;2022-12-18T09:00:18;-5.30;99.90
28010;DHT22;15334;49.494;8.410;2022-12-18T09:02:46;-5.30;99.90
28010;DHT22;15334;49.494;8.410;2022-12-18T09:05:15;-5.20;99.90
28010;DHT22;15334;49.494;8.410;2022-12-18T09:07:43;-5.10;99.90
28010;DHT22;15334;49.494;8.410;2022-12-18T09:10:12;-5.10;99.90
28010;DHT22;15334;49.494;8.410;2022-12-18T09:12:41;-5.00;99.90
28010;DHT22;15334;49.494;8.410;2022-12-18T09:15:10;-4.90;99.90
28010;DHT22;15334;49.494;8.410;2022-12-18T09:17:38;-4.90;99.90
28010;DHT22;15334;49.494;8.410;2022-12-18T09:20:07;-4.80;99.90
28010;DHT22;15334;49.494;8.410;2022-12-18T09:22:35;-4.70;99.90
28010;DHT22;15334;49.494;8.410;2022-12-18T09:25:04;-4.70;99.90
28010;DHT22;15334;49.494;8.410;2022-12-18T09:27:36;-4.80;99.90
28010;DHT22;15334;49.494;8.410;2022-12-18T09:30:07;-5.00;99.90
28010;DHT22;15334;49.494;8.410;2022-12-18T09:32:37;-5.10;99.90
28010;DHT22;15334;49.494;8.410;2022-12-18T09:35:05;-5.10;99.90
28010;DHT22;15334;49.494;8.410;2022-12-18T09:37:33;-4.90;99.90
28010;DHT22;15334;49.494;8.410;2022-12-18T09:40:01;-4.70;99.90
28010;DHT22;15334;49.494;8.410;2022-12-18T09:42:29;-4.50;99.90
28010;DHT22;15334;49.494;8.410;2022-12-18T09:44:58;-4.40;99.90
28010;DHT22;15334;49.494;8.410;2022-12-18T09:47:34;-4.30;99.90
28010;DHT22;15334;49.494;8.410;2022-12-18T09:50:15;-4.10;99.90
28010;DHT22;15334;49.494;8.410;2022-12-18T09:52:47;-4.10;99.90
28010;DHT22;15334;49.494;8.410;2022-12-18T09:55:22;-4.10;99.90
28010;DHT22;15334;49.494;8.410;2022-12-18T09:57:55;-4.10;99.90
28010;DHT22;15334;49.494;8.410;2022-12-18T10:00:25;-4.10;99.90
28010;DHT22;15334;49.494;8.410;2022-12-18T10:02:59;-4.20;99.90
28010;DHT22;15334;49.494;8.410;2022-12-18T10:05:39;-4.20;99.90
28010;DHT22;15334;49.494;8.410;2022-12-18T10:08:13;-4.00;99.90
28010;DHT22;15334;49.494;8.410;2022-12-18T10:10:49;-3.90;99.90
28010;DHT22;15334;49.494;8.410;2022-12-18T10:13:38;-3.80;99.90
28010;DHT22;15334;49.494;8.410;2022-12-18T10:16:12;-3.60;99.90
28010;DHT22;15334;49.494;8.410;2022-12-18T10:19:00;-3.50;99.90
28010;DHT22;15334;49.494;8.410;2022-12-18T10:21:38;-3.40;99.90
28010;DHT22;15334;49.494;8.410;2022-12-18T10:24:17;-3.50;99.90
28010;DHT22;15334;49.494;8.410;2022-12-18T10:26:48;-3.50;99.90
28010;DHT22;15334;49.494;8.410;2022-12-18T10:29:17;-3.40;99.90
28010;DHT22;15334;49.494;8.410;2022-12-18T10:31:45;-3.70;99.90
28010;DHT22;15334;49.494;8.410;2022-12-18T10:34:15;-3.60;99.90
28010;DHT22;15334;49.494;8.410;2022-12-18T10:36:47;-3.60;99.90
28010;DHT22;15334;49.494;8.410;2022-12-18T10:39:17;-3.50;99.90
28010;DHT22;15334;49.494;8.410;2022-12-18T10:41:48;-3.50;99.90
28010;DHT22;15334;49.494;8.410;2022-12-18T10:44:20;-3.30;99.90
28010;DHT22;15334;49.494;8.410;2022-12-18T10:46:49;-2.90;99.90
28010;DHT22;15334;49.494;8.410;2022-12-18T10:49:23;-2.60;99.90
28010;DHT22;15334;49.494;8.410;2022-12-18T10:52:06;-2.20;99.90
28010;DHT22;15334;49.494;8.410;2022-12-18T10:54:36;-1.90;99.90
28010;DHT22;15334;49.494;8.410;2022-12-18T10:57:31;-1.60;99.90
28010;DHT22;15334;49.494;8.410;2022-12-18T11:00:24;-1.50;99.90
28010;DHT22;15334;49.494;8.410;2022-12-18T11:02:54;-1.00;99.90
28010;DHT22;15334;49.494;8.410;2022-12-18T11:05:29;-1.20;99.90
28010;DHT22;15334;49.494;8.410;2022-12-18T11:08:02;-1.50;99.90
28010;DHT22;15334;49.494;8.410;2022-12-18T11:10:32;-1.40;99.90
28010;DHT22;15334;49.494;8.410;2022-12-18T11:13:11;-1.20;99.90
28010;DHT22;15334;49.494;8.410;2022-12-18T11:15:47;-0.70;99.90
28010;DHT22;15334;49.494;8.410;2022-12-18T11:18:22;0.00;99.90
28010;DHT22;15334;49.494;8.410;2022-12-18T11:20:53;0.30;99.90
28010;DHT22;15334;49.494;8.410;2022-12-18T11:23:26;0.40;99.90
28010;DHT22;15334;49.494;8.410;2022-12-18T11:25:56;0.40;99.90
28010;DHT22;15334;49.494;8.410;2022-12-18T11:28:38;0.60;99.90
28010;DHT22;15334;49.494;8.410;2022-12-18T11:31:25;0.60;99.90
28010;DHT22;15334;49.494;8.410;2022-12-18T11:34:02;0.30;99.90
28010;DHT22;15334;49.494;8.410;2022-12-18T11:36:54;0.00;99.90
28010;DHT22;15334;49.494;8.410;2022-12-18T11:39:30;0.00;99.90
28010;DHT22;15334;49.494;8.410;2022-12-18T11:42:04;-0.50;99.90
28010;DHT22;15334;49.494;8.410;2022-12-18T11:44:44;-0.70;99.90
28010;DHT22;15334;49.494;8.410;2022-12-18T11:47:28;-1.10;99.90
28010;DHT22;15334;49.494;8.410;2022-12-18T11:50:01;-1.50;99.90
28010;DHT22;15334;49.494;8.410;2022-12-18T11:52:34;-1.60;99.90
28010;DHT22;15334;49.494;8.410;2022-12-18T11:55:12;-1.70;99.90
28010;DHT22;15334;49.494;8.410;2022-12-18T11:57:49;-1.40;99.90
28010;DHT22;15334;49.494;8.410;2022-12-18T12:00:20;-1.30;99.90
28010;DHT22;15334;49.494;8.410;2022-12-18T12:03:13;-1.20;99.90
28010;DHT22;15334;49.494;8.410;2022-12-18T12:05:55;-1.10;99.90
28010;DHT22;15334;49.494;8.410;2022-12-18T12:08:34;-0.90;99.90
28010;DHT22;15334;49.494;8.410;2022-12-18T12:11:20;-0.60;99.90
28010;DHT22;15334;49.494;8.410;2022-12-18T12:14:03;-0.70;99.90
28010;DHT22;15334;49.494;8.410;2022-12-18T12:16:43;-0.40;99.90
28010;DHT22;15334;49.494;8.410;2022-12-18T12:19:24;-0.20;99.90
28010;DHT22;15334;49.494;8.410;2022-12-18T12:22:00;0.20;99.90
28010;DHT22;15334;49.494;8.410;2022-12-18T12:24:38;0.50;99.90
28010;DHT22;15334;49.494;8.410;2022-12-18T12:27:17;0.70;99.90
28010;DHT22;15334;49.494;8.410;2022-12-18T12:29:58;1.00;99.90
28010;DHT22;15334;49.494;8.410;2022-12-18T12:32:38;1.00;99.90
28010;DHT22;15334;49.494;8.410;2022-12-18T12:35:20;0.90;99.90
28010;DHT22;15334;49.494;8.410;2022-12-18T12:37:55;0.90;99.90
28010;DHT22;15334;49.494;8.410;2022-12-18T12:40:28;0.90;99.90
28010;DHT22;15334;49.494;8.410;2022-12-18T12:43:27;0.80;99.90
28010;DHT22;15334;49.494;8.410;2022-12-18T12:45:58;0.50;99.90
28010;DHT22;15334;49.494;8.410;2022-12-18T12:48:35;0.10;99.90
28010;DHT22;15334;49.494;8.410;2022-12-18T12:51:12;-0.10;99.90
28010;DHT22;15334;49.494;8.410;2022-12-18T12:53:41;-0.10;99.90
28010;DHT22;15334;49.494;8.410;2022-12-18T12:56:15;-0.20;99.90
28010;DHT22;15334;49.494;8.410;2022-12-18T12:59:01;-0.10;99.90
28010;DHT22;15334;49.494;8.410;2022-12-18T13:01:38;0.00;99.90
28010;DHT22;15334;49.494;8.410;2022-12-18T13:04:17;-0.20;99.90
28010;DHT22;15334;49.494;8.410;2022-12-18T13:06:55;-0.20;99.90
28010;DHT22;15334;49.494;8.410;2022-12-18T13:09:25;-0.20;99.90
28010;DHT22;15334;49.494;8.410;2022-12-18T13:12:02;-0.40;99.90
28010;DHT22;15334;49.494;8.410;2022-12-18T13:14:51;-0.40;99.90
28010;DHT22;15334;49.494;8.410;2022-12-18T13:17:30;-0.40;99.90
28010;DHT22;15334;49.494;8.410;2022-12-18T13:20:09;-0.70;99.90
28010;DHT22;15334;49.494;8.410;2022-12-18T13:22:42;-1.10;99.90
28010;DHT22;15334;49.494;8.410;2022-12-18T13:25:34;-1.10;99.90
28010;DHT22;15334;49.494;8.410;2022-12-18T13:28:07;-1.20;99.90
28010;DHT22;15334;49.494;8.410;2022-12-18T13:30:58;-1.00;99.90
28010;DHT22;15334;49.494;8.410;2022-12-18T13:33:48;-1.00;99.90
28010;DHT22;15334;49.494;8.410;2022-12-18T13:36:36;-1.00;99.90
28010;DHT22;15334;49.494;8.410;2022-12-18T13:39:20;-0.90;99.90
28010;DHT22;15334;49.494;8.410;2022-12-18T13:45:45;-0.80;99.90
28010;DHT22;15334;49.494;8.410;2022-12-18T13:48:23;-1.00;99.90
28010;DHT22;15334;49.494;8.410;2022-12-18T13:50:58;-1.30;99.90
28010;DHT22;15334;49.494;8.410;2022-12-18T13:53:29;-1.40;99.90
28010;DHT22;15334;49.494;8.410;2022-12-18T13:55:58;-1.40;99.90
28010;DHT22;15334;49.494;8.410;2022-12-18T13:58:29;-1.50;99.90
28010;DHT22;15334;49.494;8.410;2022-12-18T14:01:00;-1.50;99.90
28010;DHT22;15334;49.494;8.410;2022-12-18T14:03:35;-1.50;99.90
28010;DHT22;15334;49.494;8.410;2022-12-18T14:06:05;-1.60;99.90
28010;DHT22;15334;49.494;8.410;2022-12-18T14:08:38;-1.50;99.90
28010;DHT22;15334;49.494;8.410;2022-12-18T14:13:46;-1.80;99.90
28010;DHT22;15334;49.494;8.410;2022-12-18T14:16:17;-1.90;99.90
28010;DHT22;15334;49.494;8.410;2022-12-18T14:18:50;-1.80;99.90
28010;DHT22;15334;49.494;8.410;2022-12-18T14:21:28;-1.70;99.90
28010;DHT22;15334;49.494;8.410;2022-12-18T14:24:06;-1.60;99.90
28010;DHT22;15334;49.494;8.410;2022-12-18T14:26:50;-1.50;99.90
28010;DHT22;15334;49.494;8.410;2022-12-18T14:29:23;-1.50;99.90
28010;DHT22;15334;49.494;8.410;2022-12-18T14:32:10;-1.50;99.90
28010;DHT22;15334;49.494;8.410;2022-12-18T14:34:47;-1.70;99.90
28010;DHT22;15334;49.494;8.410;2022-12-18T14:37:16;-1.80;99.90
28010;DHT22;15334;49.494;8.410;2022-12-18T14:39:55;-1.90;99.90
28010;DHT22;15334;49.494;8.410;2022-12-18T14:42:25;-2.00;99.90
28010;DHT22;15334;49.494;8.410;2022-12-18T14:45:32;-2.20;99.90
28010;DHT22;15334;49.494;8.410;2022-12-18T14:48:11;-2.10;99.90
28010;DHT22;15334;49.494;8.410;2022-12-18T14:50:57;-2.20;99.90
28010;DHT22;15334;49.494;8.410;2022-12-18T14:53:33;-2.30;99.90
28010;DHT22;15334;49.494;8.410;2022-12-18T14:56:10;-2.30;99.90
28010;DHT22;15334;49.494;8.410;2022-12-18T14:58:45;-2.40;99.90
28010;DHT22;15334;49.494;8.410;2022-12-18T15:01:26;-2.40;99.90
28010;DHT22;15334;49.494;8.410;2022-12-18T15:03:56;-2.40;99.90
28010;DHT22;15334;49.494;8.410;2022-12-18T15:06:37;-2.30;99.90
28010;DHT22;15334;49.494;8.410;2022-12-18T15:09:22;-2.30;99.90
28010;DHT22;15334;49.494;8.410;2022-12-18T15:11:55;-2.40;99.90
28010;DHT22;15334;49.494;8.410;2022-12-18T15:14:33;-2.40;99.90
28010;DHT22;15334;49.494;8.410;2022-12-18T15:17:05;-2.50;99.90
28010;DHT22;15334;49.494;8.410;2022-12-18T15:19:39;-2.50;99.90
28010;DHT22;15334;49.494;8.410;2022-12-18T15:22:27;-2.50;99.90
28010;DHT22;15334;49.494;8.410;2022-12-18T15:24:57;-2.50;99.90
28010;DHT22;15334;49.494;8.410;2022-12-18T15:27:29;-2.50;99.90
28010;DHT22;15334;49.494;8.410;2022-12-18T15:30:02;-2.50;99.90
28010;DHT22;15334;49.494;8.410;2022-12-18T15:32:32;-2.50;99.90
28010;DHT22;15334;49.494;8.410;2022-12-18T15:35:14;-2.50;99.90
28010;DHT22;15334;49.494;8.410;2022-12-18T15:37:44;-2.60;99.90
28010;DHT22;15334;49.494;8.410;2022-12-18T15:40:13;-2.60;99.90
28010;DHT22;15334;49.494;8.410;2022-12-18T15:42:43;-2.60;99.90
28010;DHT22;15334;49.494;8.410;2022-12-18T15:45:29;-2.70;99.90
28010;DHT22;15334;49.494;8.410;2022-12-18T15:47:59;-2.70;99.90
28010;DHT22;15334;49.494;8.410;2022-12-18T15:50:34;-2.80;99.90
28010;DHT22;15334;49.494;8.410;2022-12-18T15:53:03;-2.80;99.90
28010;DHT22;15334;49.494;8.410;2022-12-18T15:55:33;-2.80;99.90
28010;DHT22;15334;49.494;8.410;2022-12-18T15:58:26;-2.80;99.90
28010;DHT22;15334;49.494;8.410;2022-12-18T16:00:55;-2.80;99.90
28010;DHT22;15334;49.494;8.410;2022-12-18T16:03:28;-2.80;99.90
28010;DHT22;15334;49.494;8.410;2022-12-18T16:05:56;-2.80;99.90
28010;DHT22;15334;49.494;8.410;2022-12-18T16:08:31;-2.80;99.90
28010;DHT22;15334;49.494;8.410;2022-12-18T16:11:00;-2.80;99.90
28010;DHT22;15334;49.494;8.410;2022-12-18T16:13:28;-2.80;99.90
28010;DHT22;15334;49.494;8.410;2022-12-18T16:15:56;-2.80;99.90
28010;DHT22;15334;49.494;8.410;2022-12-18T16:18:26;-2.80;99.90
28010;DHT22;15334;49.494;8.410;2022-12-18T16:20:55;-3.00;99.90